sensor_id;sensor_type;location;lat;lon;timestamp;pressure;altitude;pressure_sealevel;temperature;humidity
14089;BME280;7120;52.890;6.040;2023-11-19T00:01:48;100551.41;;;13.18;100.00
14089;BME280;7120;52.890;6.040;2023-11-19T00:04:14;100559.97;;;13.16;100.00
14089;BME280;7120;52.890;6.040;2023-11-19T00:06:39;100549.97;;;13.21;100.00
14089;BME280;7120;52.890;6.040;2023-11-19T00:09:04;100548.03;;;13.21;100.00
14089;BME280;7120;52.890;6.040;2023-11-19T00:11:30;100540.28;;;13.23;100.00
14089;BME280;7120;52.890;6.040;2023-11-19T00:13:56;100530.75;;;13.12;100.00
14089;BME280;7120;52.890;6.040;2023-11-19T00:16:21;100535.25;;;13.16;100.00
14089;BME280;7120;52.890;6.040;2023-11-19T00:18:46;100538.00;;;13.16;100.00
14089;BME280;7120;52.890;6.040;2023-11-19T00:21:12;100523.78;;;13.14;100.00
14089;BME280;7120;52.890;6.040;2023-11-19T00:23:37;100526.69;;;13.18;100.00
14089;BME280;7120;52.890;6.040;2023-11-19T00:26:03;100527.50;;;13.18;100.00
14089;BME280;7120;52.890;6.040;2023-11-19T00:28:31;100523.13;;;13.17;100.00
14089;BME280;7120;52.890;6.040;2023-11-19T00:30:56;100519.56;;;13.17;100.00
14089;BME280;7120;52.890;6.040;2023-11-19T00:33:22;100518.78;;;13.16;100.00
14089;BME280;7120;52.890;6.040;2023-11-19T00:35:47;100520.53;;;13.30;100.00
14089;BME280;7120;52.890;6.040;2023-11-19T00:38:13;100518.13;;;13.28;100.00
14089;BME280;7120;52.890;6.040;2023-11-19T00:40:39;100522.66;;;13.24;100.00
14089;BME280;7120;52.890;6.040;2023-11-19T00:43:06;100507.66;;;13.13;100.00
14089;BME280;7120;52.890;6.040;2023-11-19T00:45:31;100510.41;;;13.13;100.00
14089;BME280;7120;52.890;6.040;2023-11-19T00:47:56;100482.13;;;13.12;100.00
14089;BME280;7120;52.890;6.040;2023-11-19T00:50:24;100507.97;;;13.11;100.00
14089;BME280;7120;52.890;6.040;2023-11-19T00:52:49;100492.91;;;13.17;100.00
14089;BME280;7120;52.890;6.040;2023-11-19T00:55:15;100486.16;;;13.24;100.00
14089;BME280;7120;52.890;6.040;2023-11-19T00:57:40;100488.47;;;13.04;100.00
14089;BME280;7120;52.890;6.040;2023-11-19T01:00:06;100488.44;;;13.13;100.00
14089;BME280;7120;52.890;6.040;2023-11-19T01:02:39;100495.09;;;12.95;100.00
14089;BME280;7120;52.890;6.040;2023-11-19T01:05:08;100497.19;;;12.98;100.00
14089;BME280;7120;52.890;6.040;2023-11-19T01:07:33;100495.91;;;13.04;100.00
14089;BME280;7120;52.890;6.040;2023-11-19T01:09:58;100497.66;;;13.00;100.00
14089;BME280;7120;52.890;6.040;2023-11-19T01:12:24;100502.28;;;13.16;100.00
14089;BME280;7120;52.890;6.040;2023-11-19T01:14:49;100509.41;;;13.17;100.00
14089;BME280;7120;52.890;6.040;2023-11-19T01:17:15;100503.25;;;13.29;100.00
14089;BME280;7120;52.890;6.040;2023-11-19T01:19:41;100501.50;;;13.16;100.00
14089;BME280;7120;52.890;6.040;2023-11-19T01:22:06;100503.59;;;13.19;100.00
14089;BME280;7120;52.890;6.040;2023-11-19T01:24:32;100503.44;;;13.24;100.00
14089;BME280;7120;52.890;6.040;2023-11-19T01:26:57;100496.00;;;13.25;100.00
14089;BME280;7120;52.890;6.040;2023-11-19T01:29:25;100496.28;;;13.32;100.00
14089;BME280;7120;52.890;6.040;2023-11-19T01:31:50;100491.31;;;13.34;100.00
14089;BME280;7120;52.890;6.040;2023-11-19T01:34:18;100490.16;;;13.35;100.00
14089;BME280;7120;52.890;6.040;2023-11-19T01:36:43;100491.00;;;13.27;100.00
14089;BME280;7120;52.890;6.040;2023-11-19T01:39:09;100480.66;;;13.32;100.00
14089;BME280;7120;52.890;6.040;2023-11-19T01:41:37;100480.34;;;13.25;100.00
14089;BME280;7120;52.890;6.040;2023-11-19T01:44:05;100488.50;;;13.42;100.00
14089;BME280;7120;52.890;6.040;2023-11-19T01:46:31;100479.81;;;13.40;100.00
14089;BME280;7120;52.890;6.040;2023-11-19T01:48:59;100462.03;;;13.38;100.00
14089;BME280;7120;52.890;6.040;2023-11-19T01:51:25;100459.47;;;13.33;100.00
14089;BME280;7120;52.890;6.040;2023-11-19T01:53:52;100457.56;;;13.16;100.00
14089;BME280;7120;52.890;6.040;2023-11-19T01:56:17;100461.50;;;12.98;100.00
14089;BME280;7120;52.890;6.040;2023-11-19T01:58:44;100460.41;;;12.90;100.00
14089;BME280;7120;52.890;6.040;2023-11-19T02:01:11;100465.91;;;12.90;100.00
14089;BME280;7120;52.890;6.040;2023-11-19T02:03:37;100468.13;;;12.88;100.00
14089;BME280;7120;52.890;6.040;2023-11-19T02:06:03;100465.09;;;12.81;100.00
14089;BME280;7120;52.890;6.040;2023-11-19T02:08:29;100467.19;;;12.84;100.00
14089;BME280;7120;52.890;6.040;2023-11-19T02:10:54;100465.41;;;12.88;100.00
14089;BME280;7120;52.890;6.040;2023-11-19T02:13:26;100472.00;;;12.87;100.00
14089;BME280;7120;52.890;6.040;2023-11-19T02:15:57;100475.25;;;12.80;100.00
14089;BME280;7120;52.890;6.040;2023-11-19T02:18:25;100477.84;;;12.85;100.00
14089;BME280;7120;52.890;6.040;2023-11-19T02:20:56;100478.47;;;12.91;100.00
14089;BME280;7120;52.890;6.040;2023-11-19T02:23:22;100469.44;;;12.90;100.00
14089;BME280;7120;52.890;6.040;2023-11-19T02:25:55;100469.47;;;12.73;100.00
14089;BME280;7120;52.890;6.040;2023-11-19T02:28:24;100474.63;;;12.75;100.00
14089;BME280;7120;52.890;6.040;2023-11-19T02:30:49;100469.94;;;12.75;100.00
14089;BME280;7120;52.890;6.040;2023-11-19T02:33:15;100468.16;;;12.79;100.00
14089;BME280;7120;52.890;6.040;2023-11-19T02:35:41;100461.19;;;12.82;100.00
14089;BME280;7120;52.890;6.040;2023-11-19T02:38:06;100445.56;;;12.74;100.00
14089;BME280;7120;52.890;6.040;2023-11-19T02:40:32;100455.91;;;12.77;100.00
14089;BME280;7120;52.890;6.040;2023-11-19T02:42:58;100454.09;;;12.81;100.00
14089;BME280;7120;52.890;6.040;2023-11-19T02:45:23;100449.63;;;12.76;100.00
14089;BME280;7120;52.890;6.040;2023-11-19T02:47:50;100453.13;;;12.85;100.00
14089;BME280;7120;52.890;6.040;2023-11-19T02:50:17;100450.72;;;12.84;100.00
14089;BME280;7120;52.890;6.040;2023-11-19T02:52:51;100444.44;;;12.83;100.00
14089;BME280;7120;52.890;6.040;2023-11-19T02:55:16;100444.28;;;12.71;100.00
14089;BME280;7120;52.890;6.040;2023-11-19T02:57:43;100438.63;;;12.68;100.00
14089;BME280;7120;52.890;6.040;2023-11-19T03:00:20;100449.97;;;12.57;100.00
14089;BME280;7120;52.890;6.040;2023-11-19T03:02:51;100445.25;;;12.67;100.00
14089;BME280;7120;52.890;6.040;2023-11-19T03:05:35;100440.56;;;12.67;100.00
14089;BME280;7120;52.890;6.040;2023-11-19T03:08:00;100446.88;;;12.76;100.00
14089;BME280;7120;52.890;6.040;2023-11-19T03:10:25;100448.31;;;12.74;100.00
14089;BME280;7120;52.890;6.040;2023-11-19T03:12:51;100451.69;;;12.79;100.00
14089;BME280;7120;52.890;6.040;2023-11-19T03:15:16;100452.38;;;12.76;100.00
14089;BME280;7120;52.890;6.040;2023-11-19T03:17:42;100449.78;;;12.71;100.00
14089;BME280;7120;52.890;6.040;2023-11-19T03:20:10;100451.88;;;12.65;100.00
14089;BME280;7120;52.890;6.040;2023-11-19T03:22:39;100456.06;;;12.72;100.00
14089;BME280;7120;52.890;6.040;2023-11-19T03:25:06;100447.69;;;12.77;100.00
14089;BME280;7120;52.890;6.040;2023-11-19T03:27:36;100443.16;;;12.72;100.00
14089;BME280;7120;52.890;6.040;2023-11-19T03:30:04;100443.63;;;12.74;100.00
14089;BME280;7120;52.890;6.040;2023-11-19T03:32:33;100441.72;;;12.66;100.00
14089;BME280;7120;52.890;6.040;2023-11-19T03:35:00;100435.91;;;12.68;100.00
14089;BME280;7120;52.890;6.040;2023-11-19T03:37:26;100433.34;;;12.62;100.00
14089;BME280;7120;52.890;6.040;2023-11-19T03:39:54;100435.44;;;12.57;100.00
14089;BME280;7120;52.890;6.040;2023-11-19T03:42:19;100426.09;;;12.58;100.00
14089;BME280;7120;52.890;6.040;2023-11-19T03:44:46;100427.56;;;12.55;100.00
14089;BME280;7120;52.890;6.040;2023-11-19T03:47:11;100420.44;;;12.46;100.00
14089;BME280;7120;52.890;6.040;2023-11-19T03:49:36;100420.94;;;12.48;100.00
14089;BME280;7120;52.890;6.040;2023-11-19T03:52:02;100428.84;;;12.49;100.00
14089;BME280;7120;52.890;6.040;2023-11-19T03:54:27;100430.78;;;12.49;100.00
14089;BME280;7120;52.890;6.040;2023-11-19T03:56:53;100434.16;;;12.46;100.00
14089;BME280;7120;52.890;6.040;2023-11-19T03:59:18;100430.94;;;12.44;100.00
14089;BME280;7120;52.890;6.040;2023-11-19T04:01:45;100426.13;;;12.41;100.00
14089;BME280;7120;52.890;6.040;2023-11-19T04:04:11;100432.72;;;12.40;100.00
14089;BME280;7120;52.890;6.040;2023-11-19T04:06:36;100425.13;;;12.45;100.00
14089;BME280;7120;52.890;6.040;2023-11-19T04:09:01;100424.34;;;12.36;100.00
14089;BME280;7120;52.890;6.040;2023-11-19T04:11:27;100430.78;;;12.40;100.00
14089;BME280;7120;52.890;6.040;2023-11-19T04:13:53;100433.50;;;12.40;100.00
14089;BME280;7120;52.890;6.040;2023-11-19T04:16:18;100424.81;;;12.29;100.00
14089;BME280;7120;52.890;6.040;2023-11-19T04:18:43;100423.53;;;12.35;100.00
14089;BME280;7120;52.890;6.040;2023-11-19T04:21:09;100425.97;;;12.28;100.00
14089;BME280;7120;52.890;6.040;2023-11-19T04:23:34;100424.66;;;12.26;100.00
14089;BME280;7120;52.890;6.040;2023-11-19T04:26:03;100439.81;;;12.32;100.00
14089;BME280;7120;52.890;6.040;2023-11-19T04:28:30;100433.53;;;12.31;100.00
14089;BME280;7120;52.890;6.040;2023-11-19T04:30:55;100431.75;;;12.35;100.00
14089;BME280;7120;52.890;6.040;2023-11-19T04:33:21;100426.59;;;12.34;100.00
14089;BME280;7120;52.890;6.040;2023-11-19T04:35:46;100411.78;;;12.26;100.00
14089;BME280;7120;52.890;6.040;2023-11-19T04:38:11;100422.56;;;12.23;100.00
14089;BME280;7120;52.890;6.040;2023-11-19T04:40:37;100413.69;;;12.17;100.00
14089;BME280;7120;52.890;6.040;2023-11-19T04:43:02;100427.72;;;12.16;100.00
14089;BME280;7120;52.890;6.040;2023-11-19T04:45:27;100418.22;;;12.22;100.00
14089;BME280;7120;52.890;6.040;2023-11-19T04:47:53;100425.31;;;12.14;100.00
14089;BME280;7120;52.890;6.040;2023-11-19T04:50:18;100429.50;;;12.20;100.00
14089;BME280;7120;52.890;6.040;2023-11-19T04:52:43;100432.41;;;12.24;100.00
14089;BME280;7120;52.890;6.040;2023-11-19T04:55:12;100434.19;;;12.20;100.00
14089;BME280;7120;52.890;6.040;2023-11-19T04:57:39;100426.25;;;12.18;100.00
14089;BME280;7120;52.890;6.040;2023-11-19T05:00:05;100415.50;;;12.13;100.00
14089;BME280;7120;52.890;6.040;2023-11-19T05:02:30;100427.09;;;12.27;100.00
14089;BME280;7120;52.890;6.040;2023-11-19T05:04:56;100425.97;;;12.28;100.00
14089;BME280;7120;52.890;6.040;2023-11-19T05:07:21;100431.13;;;12.21;100.00
14089;BME280;7120;52.890;6.040;2023-11-19T05:09:47;100437.06;;;12.23;100.00
14089;BME280;7120;52.890;6.040;2023-11-19T05:12:12;100437.56;;;12.25;100.00
14089;BME280;7120;52.890;6.040;2023-11-19T05:14:38;100444.03;;;12.21;100.00
14089;BME280;7120;52.890;6.040;2023-11-19T05:17:03;100450.63;;;12.28;100.00
14089;BME280;7120;52.890;6.040;2023-11-19T05:19:28;100446.09;;;12.32;100.00
14089;BME280;7120;52.890;6.040;2023-11-19T05:21:54;100439.34;;;12.30;100.00
14089;BME280;7120;52.890;6.040;2023-11-19T05:24:19;100442.91;;;12.22;100.00
14089;BME280;7120;52.890;6.040;2023-11-19T05:26:48;100433.88;;;12.21;100.00
14089;BME280;7120;52.890;6.040;2023-11-19T05:29:15;100437.41;;;12.22;100.00
14089;BME280;7120;52.890;6.040;2023-11-19T05:31:40;100440.81;;;12.27;100.00
14089;BME280;7120;52.890;6.040;2023-11-19T05:34:06;100444.34;;;12.28;100.00
14089;BME280;7120;52.890;6.040;2023-11-19T05:36:35;100444.50;;;12.31;100.00
14089;BME280;7120;52.890;6.040;2023-11-19T05:39:00;100445.16;;;12.20;100.00
14089;BME280;7120;52.890;6.040;2023-11-19T05:41:25;100444.97;;;12.25;100.00
14089;BME280;7120;52.890;6.040;2023-11-19T05:43:51;100438.53;;;12.12;100.00
14089;BME280;7120;52.890;6.040;2023-11-19T05:46:16;100463.84;;;12.09;100.00
14089;BME280;7120;52.890;6.040;2023-11-19T05:48:42;100430.94;;;12.18;100.00
14089;BME280;7120;52.890;6.040;2023-11-19T05:51:07;100439.97;;;12.18;100.00
14089;BME280;7120;52.890;6.040;2023-11-19T05:53:33;100439.34;;;12.21;100.00
14089;BME280;7120;52.890;6.040;2023-11-19T05:55:59;100444.66;;;12.18;100.00
14089;BME280;7120;52.890;6.040;2023-11-19T05:58:28;100440.63;;;12.15;100.00
14089;BME280;7120;52.890;6.040;2023-11-19T06:00:57;100453.88;;;12.13;100.00
14089;BME280;7120;52.890;6.040;2023-11-19T06:03:23;100437.22;;;12.18;100.00
14089;BME280;7120;52.890;6.040;2023-11-19T06:05:49;100443.22;;;12.20;100.00
14089;BME280;7120;52.890;6.040;2023-11-19T06:08:15;100444.69;;;12.26;100.00
14089;BME280;7120;52.890;6.040;2023-11-19T06:10:41;100437.75;;;12.20;100.00
14089;BME280;7120;52.890;6.040;2023-11-19T06:13:07;100437.06;;;12.23;100.00
14089;BME280;7120;52.890;6.040;2023-11-19T06:15:35;100436.44;;;12.18;100.00
14089;BME280;7120;52.890;6.040;2023-11-19T06:18:01;100436.28;;;12.23;100.00
14089;BME280;7120;52.890;6.040;2023-11-19T06:20:28;100442.41;;;12.28;100.00
14089;BME280;7120;52.890;6.040;2023-11-19T06:22:54;100445.81;;;12.34;100.00
14089;BME280;7120;52.890;6.040;2023-11-19T06:25:20;100445.63;;;12.39;100.00
14089;BME280;7120;52.890;6.040;2023-11-19T06:27:45;100449.00;;;12.36;100.00
14089;BME280;7120;52.890;6.040;2023-11-19T06:30:11;100445.28;;;12.32;100.00
14089;BME280;7120;52.890;6.040;2023-11-19T06:32:39;100438.19;;;12.40;100.00
14089;BME280;7120;52.890;6.040;2023-11-19T06:35:05;100437.88;;;12.32;100.00
14089;BME280;7120;52.890;6.040;2023-11-19T06:37:30;100442.25;;;12.16;100.00
14089;BME280;7120;52.890;6.040;2023-11-19T06:39:56;100459.34;;;12.13;100.00
14089;BME280;7120;52.890;6.040;2023-11-19T06:42:21;100451.59;;;12.06;100.00
14089;BME280;7120;52.890;6.040;2023-11-19T06:44:46;100460.13;;;12.05;100.00
14089;BME280;7120;52.890;6.040;2023-11-19T06:47:12;100462.56;;;12.06;100.00
14089;BME280;7120;52.890;6.040;2023-11-19T06:49:37;100451.13;;;12.13;100.00
14089;BME280;7120;52.890;6.040;2023-11-19T06:52:03;100449.47;;;12.12;100.00
14089;BME280;7120;52.890;6.040;2023-11-19T06:54:29;100459.34;;;12.13;100.00
14089;BME280;7120;52.890;6.040;2023-11-19T06:56:55;100454.00;;;12.17;100.00
14089;BME280;7120;52.890;6.040;2023-11-19T06:59:20;100461.59;;;12.11;100.00
14089;BME280;7120;52.890;6.040;2023-11-19T07:01:46;100462.09;;;12.13;100.00
14089;BME280;7120;52.890;6.040;2023-11-19T07:04:12;100463.69;;;12.14;100.00
14089;BME280;7120;52.890;6.040;2023-11-19T07:06:38;100460.94;;;12.31;100.00
14089;BME280;7120;52.890;6.040;2023-11-19T07:09:04;100464.34;;;12.37;100.00
14089;BME280;7120;52.890;6.040;2023-11-19T07:11:41;100466.28;;;12.36;100.00
14089;BME280;7120;52.890;6.040;2023-11-19T07:14:07;100469.50;;;12.30;100.00
14089;BME280;7120;52.890;6.040;2023-11-19T07:16:33;100462.56;;;12.32;100.00
14089;BME280;7120;52.890;6.040;2023-11-19T07:19:00;100459.34;;;12.30;100.00
14089;BME280;7120;52.890;6.040;2023-11-19T07:21:26;100454.84;;;12.34;100.00
14089;BME280;7120;52.890;6.040;2023-11-19T07:23:54;100468.84;;;12.33;100.00
14089;BME280;7120;52.890;6.040;2023-11-19T07:26:19;100473.84;;;12.31;100.00
14089;BME280;7120;52.890;6.040;2023-11-19T07:28:44;100473.06;;;12.30;100.00
14089;BME280;7120;52.890;6.040;2023-11-19T07:31:10;100477.41;;;12.23;100.00
14089;BME280;7120;52.890;6.040;2023-11-19T07:33:36;100483.22;;;12.21;100.00
14089;BME280;7120;52.890;6.040;2023-11-19T07:36:01;100486.59;;;12.35;100.00
14089;BME280;7120;52.890;6.040;2023-11-19T07:38:27;100492.56;;;12.29;100.00
14089;BME280;7120;52.890;6.040;2023-11-19T07:40:52;100497.91;;;12.34;100.00
14089;BME280;7120;52.890;6.040;2023-11-19T07:43:17;100504.00;;;12.40;100.00
14089;BME280;7120;52.890;6.040;2023-11-19T07:45:43;100495.47;;;12.41;100.00
14089;BME280;7120;52.890;6.040;2023-11-19T07:48:11;100500.47;;;12.39;100.00
14089;BME280;7120;52.890;6.040;2023-11-19T07:50:39;100497.56;;;12.53;100.00
14089;BME280;7120;52.890;6.040;2023-11-19T07:53:07;100499.50;;;12.44;100.00
14089;BME280;7120;52.890;6.040;2023-11-19T07:55:34;100499.19;;;12.45;100.00
14089;BME280;7120;52.890;6.040;2023-11-19T07:57:59;100505.31;;;12.51;100.00
14089;BME280;7120;52.890;6.040;2023-11-19T08:00:24;100505.47;;;12.37;100.00
14089;BME280;7120;52.890;6.040;2023-11-19T08:02:50;100502.91;;;12.41;100.00
14089;BME280;7120;52.890;6.040;2023-11-19T08:05:15;100509.53;;;12.48;100.00
14089;BME280;7120;52.890;6.040;2023-11-19T08:07:40;100521.91;;;12.54;100.00
14089;BME280;7120;52.890;6.040;2023-11-19T08:10:07;100504.16;;;12.60;100.00
14089;BME280;7120;52.890;6.040;2023-11-19T08:12:35;100511.94;;;12.58;100.00
14089;BME280;7120;52.890;6.040;2023-11-19T08:15:04;100502.72;;;12.54;100.00
14089;BME280;7120;52.890;6.040;2023-11-19T08:17:30;100507.25;;;12.59;100.00
14089;BME280;7120;52.890;6.040;2023-11-19T08:19:55;100510.47;;;12.61;100.00
14089;BME280;7120;52.890;6.040;2023-11-19T08:22:20;100502.88;;;12.58;100.00
14089;BME280;7120;52.890;6.040;2023-11-19T08:24:47;100517.72;;;12.65;100.00
14089;BME280;7120;52.890;6.040;2023-11-19T08:27:13;100518.69;;;12.61;100.00
14089;BME280;7120;52.890;6.040;2023-11-19T08:29:38;100511.63;;;12.69;100.00
14089;BME280;7120;52.890;6.040;2023-11-19T08:32:04;100505.47;;;12.72;100.00
14089;BME280;7120;52.890;6.040;2023-11-19T08:34:29;100509.66;;;12.60;100.00
14089;BME280;7120;52.890;6.040;2023-11-19T08:36:55;100512.41;;;12.60;100.00
14089;BME280;7120;52.890;6.040;2023-11-19T08:39:21;100512.41;;;12.60;100.00
14089;BME280;7120;52.890;6.040;2023-11-19T08:41:47;100519.50;;;12.70;100.00
14089;BME280;7120;52.890;6.040;2023-11-19T08:44:13;100525.94;;;12.74;100.00
14089;BME280;7120;52.890;6.040;2023-11-19T08:46:38;100520.28;;;12.88;100.00
14089;BME280;7120;52.890;6.040;2023-11-19T08:49:05;100526.59;;;12.80;100.00
14089;BME280;7120;52.890;6.040;2023-11-19T08:51:30;100526.28;;;12.90;100.00
14089;BME280;7120;52.890;6.040;2023-11-19T08:53:56;100534.00;;;12.97;100.00
14089;BME280;7120;52.890;6.040;2023-11-19T08:56:22;100522.22;;;13.05;100.00
14089;BME280;7120;52.890;6.040;2023-11-19T08:58:48;100526.22;;;13.07;100.00
14089;BME280;7120;52.890;6.040;2023-11-19T09:01:13;100526.81;;;13.39;100.00
14089;BME280;7120;52.890;6.040;2023-11-19T09:03:38;100524.22;;;13.42;100.00
14089;BME280;7120;52.890;6.040;2023-11-19T09:06:04;100523.97;;;13.27;100.00
14089;BME280;7120;52.890;6.040;2023-11-19T09:08:29;100521.53;;;13.25;100.00
14089;BME280;7120;52.890;6.040;2023-11-19T09:10:55;100527.19;;;13.11;100.00
14089;BME280;7120;52.890;6.040;2023-11-19T09:13:20;100522.19;;;13.22;100.00
14089;BME280;7120;52.890;6.040;2023-11-19T09:15:45;100525.81;;;13.43;100.00
14089;BME280;7120;52.890;6.040;2023-11-19T09:18:11;100531.94;;;13.49;100.00
14089;BME280;7120;52.890;6.040;2023-11-19T09:20:36;100528.06;;;13.50;100.00
14089;BME280;7120;52.890;6.040;2023-11-19T09:23:04;100535.66;;;13.53;100.00
14089;BME280;7120;52.890;6.040;2023-11-19T09:25:30;100538.63;;;13.39;100.00
14089;BME280;7120;52.890;6.040;2023-11-19T09:27:56;100531.03;;;13.36;100.00
14089;BME280;7120;52.890;6.040;2023-11-19T09:30:21;100524.34;;;13.46;100.00
14089;BME280;7120;52.890;6.040;2023-11-19T09:32:47;100522.75;;;13.45;100.00
14089;BME280;7120;52.890;6.040;2023-11-19T09:35:13;100523.91;;;13.35;100.00
14089;BME280;7120;52.890;6.040;2023-11-19T09:37:40;100529.25;;;13.32;100.00
14089;BME280;7120;52.890;6.040;2023-11-19T09:40:05;100522.19;;;13.22;100.00
14089;BME280;7120;52.890;6.040;2023-11-19T09:42:47;100522.66;;;13.33;100.00
14089;BME280;7120;52.890;6.040;2023-11-19T09:45:15;100525.22;;;13.29;100.00
14089;BME280;7120;52.890;6.040;2023-11-19T09:47:44;100519.69;;;13.38;100.00
14089;BME280;7120;52.890;6.040;2023-11-19T09:50:15;100520.38;;;13.35;100.00
14089;BME280;7120;52.890;6.040;2023-11-19T09:52:41;100517.84;;;13.21;100.00
14089;BME280;7120;52.890;6.040;2023-11-19T09:55:07;100522.66;;;13.15;100.00
14089;BME280;7120;52.890;6.040;2023-11-19T09:57:34;100514.66;;;12.76;100.00
14089;BME280;7120;52.890;6.040;2023-11-19T10:00:02;100515.78;;;12.83;100.00
14089;BME280;7120;52.890;6.040;2023-11-19T10:02:31;100510.47;;;12.70;100.00
14089;BME280;7120;52.890;6.040;2023-11-19T10:04:59;100510.00;;;12.76;100.00
14089;BME280;7120;52.890;6.040;2023-11-19T10:07:28;100510.47;;;12.70;100.00
14089;BME280;7120;52.890;6.040;2023-11-19T10:09:53;100506.59;;;12.71;100.00
14089;BME280;7120;52.890;6.040;2023-11-19T10:12:18;100510.97;;;12.63;100.00
14089;BME280;7120;52.890;6.040;2023-11-19T10:14:45;100513.38;;;12.56;100.00
14089;BME280;7120;52.890;6.040;2023-11-19T10:17:11;100525.63;;;12.67;100.00
14089;BME280;7120;52.890;6.040;2023-11-19T10:19:36;100513.22;;;12.70;100.00
14089;BME280;7120;52.890;6.040;2023-11-19T10:22:05;100508.34;;;12.75;100.00
14089;BME280;7120;52.890;6.040;2023-11-19T10:24:33;100512.69;;;12.93;100.00
14089;BME280;7120;52.890;6.040;2023-11-19T10:27:00;100498.94;;;13.11;100.00
14089;BME280;7120;52.890;6.040;2023-11-19T10:29:29;100507.00;;;13.07;100.00
14089;BME280;7120;52.890;6.040;2023-11-19T10:31:55;100501.84;;;13.06;100.00
14089;BME280;7120;52.890;6.040;2023-11-19T10:34:27;100505.38;;;13.24;100.00
14089;BME280;7120;52.890;6.040;2023-11-19T10:36:53;100513.28;;;13.16;100.00
14089;BME280;7120;52.890;6.040;2023-11-19T10:39:18;100512.00;;;13.14;100.00
14089;BME280;7120;52.890;6.040;2023-11-19T10:41:46;100519.91;;;13.15;100.00
14089;BME280;7120;52.890;6.040;2023-11-19T10:44:11;100530.41;;;13.22;100.00
14089;BME280;7120;52.890;6.040;2023-11-19T10:46:41;100523.00;;;13.14;100.00
14089;BME280;7120;52.890;6.040;2023-11-19T10:49:09;100522.00;;;13.18;100.00
14089;BME280;7120;52.890;6.040;2023-11-19T10:51:35;100511.16;;;13.31;100.00
14089;BME280;7120;52.890;6.040;2023-11-19T10:54:03;100517.25;;;13.54;100.00
14089;BME280;7120;52.890;6.040;2023-11-19T10:56:31;100516.22;;;13.58;100.00
14089;BME280;7120;52.890;6.040;2023-11-19T10:58:59;100521.66;;;13.76;100.00
14089;BME280;7120;52.890;6.040;2023-11-19T11:01:27;100522.53;;;13.88;100.00
14089;BME280;7120;52.890;6.040;2023-11-19T11:03:59;100518.00;;;13.92;100.00
14089;BME280;7120;52.890;6.040;2023-11-19T11:06:26;100518.47;;;13.94;100.00
14089;BME280;7120;52.890;6.040;2023-11-19T11:08:53;100514.78;;;13.90;100.00
14089;BME280;7120;52.890;6.040;2023-11-19T11:11:19;100517.63;;;13.73;100.00
14089;BME280;7120;52.890;6.040;2023-11-19T11:13:50;100520.06;;;13.66;100.00
14089;BME280;7120;52.890;6.040;2023-11-19T11:16:21;100512.84;;;13.53;100.00
14089;BME280;7120;52.890;6.040;2023-11-19T11:18:48;100512.03;;;13.61;100.00
14089;BME280;7120;52.890;6.040;2023-11-19T11:21:17;100505.97;;;13.46;100.00
14089;BME280;7120;52.890;6.040;2023-11-19T11:29:39;100513.97;;;13.60;100.00
14089;BME280;7120;52.890;6.040;2023-11-19T11:32:34;100511.75;;;13.45;100.00
14089;BME280;7120;52.890;6.040;2023-11-19T11:37:50;100504.16;;;13.51;100.00
14089;BME280;7120;52.890;6.040;2023-11-19T11:40:18;100501.34;;;13.68;100.00
14089;BME280;7120;52.890;6.040;2023-11-19T11:42:44;100496.34;;;13.61;100.00
14089;BME280;7120;52.890;6.040;2023-11-19T11:45:14;100495.72;;;13.56;100.00
14089;BME280;7120;52.890;6.040;2023-11-19T11:50:12;100498.31;;;13.52;100.00
14089;BME280;7120;52.890;6.040;2023-11-19T11:55:26;100496.00;;;13.63;100.00
14089;BME280;7120;52.890;6.040;2023-11-19T11:57:51;100487.53;;;13.47;100.00
14089;BME280;7120;52.890;6.040;2023-11-19T12:02:55;100484.50;;;13.69;100.00
14089;BME280;7120;52.890;6.040;2023-11-19T12:05:21;100491.44;;;13.67;100.00
14089;BME280;7120;52.890;6.040;2023-11-19T12:07:59;100490.91;;;13.82;100.00
14089;BME280;7120;52.890;6.040;2023-11-19T12:10:29;100487.81;;;13.84;100.00
14089;BME280;7120;52.890;6.040;2023-11-19T12:13:04;100484.31;;;14.04;100.00
14089;BME280;7120;52.890;6.040;2023-11-19T12:15:32;100489.91;;;13.87;100.00
14089;BME280;7120;52.890;6.040;2023-11-19T12:17:58;100497.50;;;13.90;100.00
14089;BME280;7120;52.890;6.040;2023-11-19T12:20:25;100487.91;;;13.96;100.00
14089;BME280;7120;52.890;6.040;2023-11-19T12:22:52;100493.31;;;13.84;100.00
14089;BME280;7120;52.890;6.040;2023-11-19T12:25:19;100492.63;;;13.87;100.00
14089;BME280;7120;52.890;6.040;2023-11-19T12:27:47;100497.91;;;14.00;100.00
14089;BME280;7120;52.890;6.040;2023-11-19T12:30:17;100494.25;;;13.88;100.00
14089;BME280;7120;52.890;6.040;2023-11-19T12:32:44;100490.50;;;13.92;100.00
14089;BME280;7120;52.890;6.040;2023-11-19T12:35:10;100487.66;;;13.80;100.00
14089;BME280;7120;52.890;6.040;2023-11-19T12:37:49;100482.16;;;13.80;100.00
14089;BME280;7120;52.890;6.040;2023-11-19T12:42:42;100484.88;;;13.59;100.00
14089;BME280;7120;52.890;6.040;2023-11-19T12:45:08;100488.56;;;13.63;100.00
14089;BME280;7120;52.890;6.040;2023-11-19T12:47:36;100476.09;;;13.66;100.00
14089;BME280;7120;52.890;6.040;2023-11-19T12:50:04;100476.72;;;13.71;100.00
14089;BME280;7120;52.890;6.040;2023-11-19T12:52:30;100480.72;;;13.53;100.00
14089;BME280;7120;52.890;6.040;2023-11-19T12:54:55;100473.59;;;13.52;100.00
14089;BME280;7120;52.890;6.040;2023-11-19T12:57:35;100485.78;;;13.72;100.00
14089;BME280;7120;52.890;6.040;2023-11-19T13:00:01;100479.66;;;13.66;100.00
14089;BME280;7120;52.890;6.040;2023-11-19T13:02:45;100482.75;;;13.65;100.00
14089;BME280;7120;52.890;6.040;2023-11-19T13:07:57;100484.06;;;13.59;100.00
14089;BME280;7120;52.890;6.040;2023-11-19T13:10:23;100486.00;;;13.58;100.00